sensor_id;sensor_type;location;lat;lon;timestamp;pressure;altitude;pressure_sealevel;temperature;humidity
30935;BME280;51033;42.648;23.292;2022-09-09T00:00:16;94108.78;;;19.77;52.24
30935;BME280;51033;42.648;23.292;2022-09-09T00:02:53;94080.75;;;19.55;52.13
30935;BME280;51033;42.648;23.292;2022-09-09T00:07:54;94115.59;;;19.67;52.46
30935;BME280;51033;42.648;23.292;2022-09-09T00:10:23;94111.31;;;19.66;52.56
30935;BME280;51033;42.648;23.292;2022-09-09T00:15:52;94103.97;;;19.63;52.59
30935;BME280;51033;42.648;23.292;2022-09-09T00:21:15;94058.78;;;19.34;52.48
30935;BME280;51033;42.648;23.292;2022-09-09T00:23:54;94095.06;;;19.59;52.44
30935;BME280;51033;42.648;23.292;2022-09-09T00:31:30;94087.75;;;19.60;52.06
30935;BME280;51033;42.648;23.292;2022-09-09T00:34:05;94082.22;;;19.53;52.36
30935;BME280;51033;42.648;23.292;2022-09-09T00:36:36;94076.72;;;19.46;52.41
30935;BME280;51033;42.648;23.292;2022-09-09T00:39:04;94035.03;;;19.17;52.19
30935;BME280;51033;42.648;23.292;2022-09-09T00:44:19;94062.75;;;19.40;51.96
30935;BME280;51033;42.648;23.292;2022-09-09T00:54:35;94069.78;;;19.45;52.47
30935;BME280;51033;42.648;23.292;2022-09-09T00:57:36;94048.66;;;19.27;52.28
30935;BME280;51033;42.648;23.292;2022-09-09T01:11:01;94076.38;;;19.24;52.46
30935;BME280;51033;42.648;23.292;2022-09-09T01:13:35;94058.44;;;19.13;52.66
30935;BME280;51033;42.648;23.292;2022-09-09T01:16:06;94069.38;;;19.20;52.75
30935;BME280;51033;42.648;23.292;2022-09-09T01:18:36;94067.81;;;19.19;53.13
30935;BME280;51033;42.648;23.292;2022-09-09T01:24:08;94059.88;;;19.07;52.93
30935;BME280;51033;42.648;23.292;2022-09-09T01:26:41;94038.53;;;18.95;53.07
30935;BME280;51033;42.648;23.292;2022-09-09T01:29:09;94055.34;;;19.11;53.19
30935;BME280;51033;42.648;23.292;2022-09-09T01:31:41;94066.91;;;19.11;53.28
30935;BME280;51033;42.648;23.292;2022-09-09T01:34:12;94063.84;;;19.13;53.30
30935;BME280;51033;42.648;23.292;2022-09-09T01:39:09;94072.03;;;18.97;53.39
30935;BME280;51033;42.648;23.292;2022-09-09T01:41:35;94069.72;;;18.96;53.39
30935;BME280;51033;42.648;23.292;2022-09-09T01:44:02;94054.50;;;18.84;53.19
30935;BME280;51033;42.648;23.292;2022-09-09T01:46:28;94071.66;;;18.95;53.34
30935;BME280;51033;42.648;23.292;2022-09-09T01:48:54;94063.38;;;18.84;53.41
30935;BME280;51033;42.648;23.292;2022-09-09T01:51:20;94059.84;;;18.80;53.50
30935;BME280;51033;42.648;23.292;2022-09-09T01:53:46;94094.47;;;19.01;53.36
30935;BME280;51033;42.648;23.292;2022-09-09T02:04:22;94069.50;;;18.81;53.72
30935;BME280;51033;42.648;23.292;2022-09-09T02:06:52;94090.38;;;18.88;54.03
30935;BME280;51033;42.648;23.292;2022-09-09T02:09:22;94088.84;;;18.87;53.96
30935;BME280;51033;42.648;23.292;2022-09-09T02:11:49;94074.78;;;18.78;53.86
30935;BME280;51033;42.648;23.292;2022-09-09T02:14:26;94064.22;;;18.69;53.92
30935;BME280;51033;42.648;23.292;2022-09-09T02:17:03;94079.50;;;18.81;54.07
30935;BME280;51033;42.648;23.292;2022-09-09T02:19:36;94037.38;;;18.54;54.19
30935;BME280;51033;42.648;23.292;2022-09-09T02:22:04;94082.41;;;18.72;54.00
30935;BME280;51033;42.648;23.292;2022-09-09T02:24:32;94067.78;;;18.73;54.11
30935;BME280;51033;42.648;23.292;2022-09-09T02:27:00;94071.31;;;18.77;54.25
30935;BME280;51033;42.648;23.292;2022-09-09T02:29:35;94069.34;;;18.74;54.00
30935;BME280;51033;42.648;23.292;2022-09-09T02:32:05;94080.63;;;18.80;54.08
30935;BME280;51033;42.648;23.292;2022-09-09T02:34:35;94081.41;;;18.80;54.01
30935;BME280;51033;42.648;23.292;2022-09-09T02:37:03;94060.66;;;18.62;53.66
30935;BME280;51033;42.648;23.292;2022-09-09T02:39:29;94052.06;;;18.56;53.90
30935;BME280;51033;42.648;23.292;2022-09-09T02:41:54;94091.25;;;18.73;53.89
30935;BME280;51033;42.648;23.292;2022-09-09T02:44:20;94083.09;;;18.69;53.67
30935;BME280;51033;42.648;23.292;2022-09-09T02:58:18;94091.16;;;18.69;53.83
30935;BME280;51033;42.648;23.292;2022-09-09T03:00:48;94056.06;;;18.43;53.84
30935;BME280;51033;42.648;23.292;2022-09-09T03:03:15;94086.84;;;18.65;53.88
30935;BME280;51033;42.648;23.292;2022-09-09T03:05:45;94091.47;;;18.64;53.78
30935;BME280;51033;42.648;23.292;2022-09-09T03:08:11;94070.38;;;18.47;53.74
30935;BME280;51033;42.648;23.292;2022-09-09T03:10:38;94057.84;;;18.35;53.70
30935;BME280;51033;42.648;23.292;2022-09-09T03:13:04;94096.00;;;18.60;53.67
30935;BME280;51033;42.648;23.292;2022-09-09T03:15:31;94069.44;;;18.39;53.72
30935;BME280;51033;42.648;23.292;2022-09-09T03:17:58;94091.25;;;18.54;54.09
30935;BME280;51033;42.648;23.292;2022-09-09T03:20:25;94081.16;;;18.47;54.08
30935;BME280;51033;42.648;23.292;2022-09-09T03:22:54;94082.69;;;18.48;54.20
30935;BME280;51033;42.648;23.292;2022-09-09T03:25:21;94068.25;;;18.37;53.88
30935;BME280;51033;42.648;23.292;2022-09-09T03:27:49;94018.88;;;18.10;54.05
30935;BME280;51033;42.648;23.292;2022-09-09T03:30:15;94095.84;;;18.53;54.07
30935;BME280;51033;42.648;23.292;2022-09-09T03:32:41;94045.66;;;18.22;53.95
30935;BME280;51033;42.648;23.292;2022-09-09T03:35:07;94051.09;;;18.26;54.18
30935;BME280;51033;42.648;23.292;2022-09-09T03:37:33;94061.59;;;18.31;54.24
30935;BME280;51033;42.648;23.292;2022-09-09T03:39:58;94040.56;;;18.17;54.31
30935;BME280;51033;42.648;23.292;2022-09-09T03:42:25;94055.44;;;18.30;54.12
30935;BME280;51033;42.648;23.292;2022-09-09T03:44:50;94073.41;;;18.45;54.49
30935;BME280;51033;42.648;23.292;2022-09-09T03:47:17;94085.09;;;18.53;54.27
30935;BME280;51033;42.648;23.292;2022-09-09T03:49:44;94046.22;;;18.31;54.25
30935;BME280;51033;42.648;23.292;2022-09-09T03:52:09;94071.44;;;18.42;54.33
30935;BME280;51033;42.648;23.292;2022-09-09T03:54:35;94060.03;;;18.30;54.09
30935;BME280;51033;42.648;23.292;2022-09-09T03:57:01;94056.34;;;18.19;54.25
30935;BME280;51033;42.648;23.292;2022-09-09T03:59:27;94080.88;;;18.33;54.44
30935;BME280;51033;42.648;23.292;2022-09-09T04:01:53;94050.56;;;18.17;54.53
30935;BME280;51033;42.648;23.292;2022-09-09T04:04:18;94071.53;;;18.27;54.19
30935;BME280;51033;42.648;23.292;2022-09-09T04:06:45;94102.19;;;18.41;54.38
30935;BME280;51033;42.648;23.292;2022-09-09T04:09:11;94090.88;;;18.32;54.42
30935;BME280;51033;42.648;23.292;2022-09-09T04:11:36;94091.22;;;18.31;54.69
30935;BME280;51033;42.648;23.292;2022-09-09T04:14:02;94090.28;;;18.42;54.64
30935;BME280;51033;42.648;23.292;2022-09-09T04:16:29;94056.34;;;18.19;54.74
30935;BME280;51033;42.648;23.292;2022-09-09T04:18:54;94055.09;;;18.13;54.83
30935;BME280;51033;42.648;23.292;2022-09-09T04:21:21;94081.56;;;18.30;54.88
30935;BME280;51033;42.648;23.292;2022-09-09T04:23:46;94019.50;;;17.84;55.09
30935;BME280;51033;42.648;23.292;2022-09-09T04:26:11;94067.97;;;18.23;54.92
30935;BME280;51033;42.648;23.292;2022-09-09T04:28:37;94094.81;;;18.38;55.03
30935;BME280;51033;42.648;23.292;2022-09-09T04:31:08;94089.00;;;18.36;55.27
30935;BME280;51033;42.648;23.292;2022-09-09T04:33:35;94075.41;;;18.29;55.50
30935;BME280;51033;42.648;23.292;2022-09-09T04:36:00;94080.00;;;18.29;55.13
30935;BME280;51033;42.648;23.292;2022-09-09T04:38:26;94060.47;;;18.13;55.17
30935;BME280;51033;42.648;23.292;2022-09-09T04:40:52;94104.22;;;18.48;55.17
30935;BME280;51033;42.648;23.292;2022-09-09T04:43:19;94071.38;;;18.20;55.14
30935;BME280;51033;42.648;23.292;2022-09-09T04:45:47;94116.94;;;18.48;55.52
30935;BME280;51033;42.648;23.292;2022-09-09T04:48:13;94074.91;;;18.24;55.50
30935;BME280;51033;42.648;23.292;2022-09-09T04:50:39;94098.09;;;18.48;55.70
30935;BME280;51033;42.648;23.292;2022-09-09T04:53:06;94065.97;;;18.39;55.67
30935;BME280;51033;42.648;23.292;2022-09-09T04:55:32;94090.63;;;18.60;55.53
30935;BME280;51033;42.648;23.292;2022-09-09T04:58:07;94083.38;;;18.64;54.73
30935;BME280;51033;42.648;23.292;2022-09-09T05:00:34;94074.16;;;18.65;54.56
30935;BME280;51033;42.648;23.292;2022-09-09T05:03:04;94059.06;;;18.61;54.43
30935;BME280;51033;42.648;23.292;2022-09-09T05:05:31;94083.81;;;18.85;54.50
30935;BME280;51033;42.648;23.292;2022-09-09T05:08:05;94057.97;;;18.84;54.78
30935;BME280;51033;42.648;23.292;2022-09-09T05:10:31;94056.66;;;18.98;54.29
30935;BME280;51033;42.648;23.292;2022-09-09T05:12:57;94054.50;;;19.07;54.24
30935;BME280;51033;42.648;23.292;2022-09-09T05:15:23;94066.13;;;19.11;54.04
30935;BME280;51033;42.648;23.292;2022-09-09T05:17:48;94045.53;;;18.99;53.19
30935;BME280;51033;42.648;23.292;2022-09-09T05:20:14;94048.75;;;19.08;52.90
30935;BME280;51033;42.648;23.292;2022-09-09T05:22:39;94029.19;;;19.11;53.30
30935;BME280;51033;42.648;23.292;2022-09-09T05:25:05;94037.53;;;19.29;53.66
30935;BME280;51033;42.648;23.292;2022-09-09T05:27:33;94022.78;;;19.23;53.14
30935;BME280;51033;42.648;23.292;2022-09-09T05:29:59;94048.22;;;19.45;52.80
30935;BME280;51033;42.648;23.292;2022-09-09T05:32:24;94057.91;;;19.49;52.69
30935;BME280;51033;42.648;23.292;2022-09-09T05:34:50;94047.69;;;19.39;52.87
30935;BME280;51033;42.648;23.292;2022-09-09T05:37:16;94079.25;;;19.61;52.85
30935;BME280;51033;42.648;23.292;2022-09-09T05:39:42;94052.97;;;19.55;53.11
30935;BME280;51033;42.648;23.292;2022-09-09T05:42:07;94073.97;;;19.68;52.79
30935;BME280;51033;42.648;23.292;2022-09-09T05:44:33;94018.34;;;19.34;51.97
30935;BME280;51033;42.648;23.292;2022-09-09T05:46:58;94058.41;;;19.58;52.23
30935;BME280;51033;42.648;23.292;2022-09-09T05:49:24;94092.25;;;19.79;51.23
30935;BME280;51033;42.648;23.292;2022-09-09T05:51:49;94068.59;;;19.68;51.66
30935;BME280;51033;42.648;23.292;2022-09-09T05:54:16;94090.44;;;19.90;50.72
30935;BME280;51033;42.648;23.292;2022-09-09T05:56:41;94084.34;;;19.93;50.05
30935;BME280;51033;42.648;23.292;2022-09-09T05:59:07;94059.53;;;19.84;50.45
30935;BME280;51033;42.648;23.292;2022-09-09T06:01:35;94084.66;;;19.88;49.55
30935;BME280;51033;42.648;23.292;2022-09-09T06:04:01;94094.03;;;19.97;50.24
30935;BME280;51033;42.648;23.292;2022-09-09T06:06:32;94078.13;;;19.89;50.70
30935;BME280;51033;42.648;23.292;2022-09-09T06:09:02;94096.47;;;20.06;50.82
30935;BME280;51033;42.648;23.292;2022-09-09T06:11:31;94073.53;;;19.93;50.10
30935;BME280;51033;42.648;23.292;2022-09-09T06:13:57;94080.91;;;19.96;49.71
30935;BME280;51033;42.648;23.292;2022-09-09T06:16:24;94083.72;;;20.03;50.30
30935;BME280;51033;42.648;23.292;2022-09-09T06:18:51;94072.09;;;19.99;50.04
30935;BME280;51033;42.648;23.292;2022-09-09T06:21:22;94073.84;;;20.14;50.08
30935;BME280;51033;42.648;23.292;2022-09-09T06:23:48;94100.38;;;20.38;49.87
30935;BME280;51033;42.648;23.292;2022-09-09T06:26:18;94094.66;;;20.43;49.76
30935;BME280;51033;42.648;23.292;2022-09-09T06:28:48;94092.81;;;20.51;49.63
30935;BME280;51033;42.648;23.292;2022-09-09T06:31:16;94096.34;;;20.58;48.93
30935;BME280;51033;42.648;23.292;2022-09-09T06:33:50;94039.72;;;20.32;48.69
30935;BME280;51033;42.648;23.292;2022-09-09T06:36:25;94080.66;;;20.68;48.98
30935;BME280;51033;42.648;23.292;2022-09-09T06:38:51;94060.50;;;20.62;49.43
30935;BME280;51033;42.648;23.292;2022-09-09T06:41:18;94071.81;;;20.74;48.73
30935;BME280;51033;42.648;23.292;2022-09-09T06:43:45;94036.84;;;20.51;48.72
30935;BME280;51033;42.648;23.292;2022-09-09T06:46:12;94051.63;;;20.61;48.27
30935;BME280;51033;42.648;23.292;2022-09-09T06:48:39;94071.81;;;20.74;48.26
30935;BME280;51033;42.648;23.292;2022-09-09T06:51:08;94085.31;;;20.71;48.33
30935;BME280;51033;42.648;23.292;2022-09-09T06:53:35;94092.31;;;20.79;48.69
30935;BME280;51033;42.648;23.292;2022-09-09T06:58:39;94092.41;;;20.86;48.42
30935;BME280;51033;42.648;23.292;2022-09-09T07:01:09;94086.91;;;20.79;48.10
30935;BME280;51033;42.648;23.292;2022-09-09T07:03:35;94079.63;;;20.83;49.11
30935;BME280;51033;42.648;23.292;2022-09-09T07:06:01;94097.22;;;21.03;48.78
30935;BME280;51033;42.648;23.292;2022-09-09T07:08:27;94102.28;;;21.05;48.29
30935;BME280;51033;42.648;23.292;2022-09-09T07:10:53;94106.66;;;21.20;48.83
30935;BME280;51033;42.648;23.292;2022-09-09T07:13:24;94080.41;;;21.20;47.87
30935;BME280;51033;42.648;23.292;2022-09-09T07:15:51;94087.41;;;21.28;47.93
30935;BME280;51033;42.648;23.292;2022-09-09T07:18:16;94076.94;;;21.23;47.53
30935;BME280;51033;42.648;23.292;2022-09-09T07:20:44;94097.47;;;21.28;47.43
30935;BME280;51033;42.648;23.292;2022-09-09T07:23:17;94092.38;;;21.23;47.65
30935;BME280;51033;42.648;23.292;2022-09-09T07:25:46;94063.41;;;21.20;47.59
30935;BME280;51033;42.648;23.292;2022-09-09T07:28:13;94055.72;;;21.25;48.30
30935;BME280;51033;42.648;23.292;2022-09-09T07:30:38;94092.91;;;21.39;47.76
30935;BME280;51033;42.648;23.292;2022-09-09T07:33:04;94071.19;;;21.28;47.45
30935;BME280;51033;42.648;23.292;2022-09-09T07:35:30;94079.81;;;21.44;48.33
30935;BME280;51033;42.648;23.292;2022-09-09T07:37:55;94029.00;;;21.20;48.12
30935;BME280;51033;42.648;23.292;2022-09-09T07:40:21;94086.16;;;21.63;47.94
30935;BME280;51033;42.648;23.292;2022-09-09T07:42:47;94058.97;;;21.45;47.21
30935;BME280;51033;42.648;23.292;2022-09-09T07:45:13;94060.53;;;21.50;47.56
30935;BME280;51033;42.648;23.292;2022-09-09T07:47:40;94071.47;;;21.60;47.28
30935;BME280;51033;42.648;23.292;2022-09-09T07:50:07;94096.34;;;21.80;47.62
30935;BME280;51033;42.648;23.292;2022-09-09T07:52:34;94072.34;;;21.75;47.67
30935;BME280;51033;42.648;23.292;2022-09-09T07:54:59;94052.91;;;21.66;47.38
30935;BME280;51033;42.648;23.292;2022-09-09T07:57:28;94094.81;;;21.86;46.45
30935;BME280;51033;42.648;23.292;2022-09-09T07:59:55;94064.59;;;21.77;47.31
30935;BME280;51033;42.648;23.292;2022-09-09T08:02:22;94072.38;;;21.85;46.69
30935;BME280;51033;42.648;23.292;2022-09-09T08:04:48;94082.56;;;22.06;46.67
30935;BME280;51033;42.648;23.292;2022-09-09T08:07:14;94079.06;;;22.06;46.67
30935;BME280;51033;42.648;23.292;2022-09-09T08:09:39;94078.34;;;22.12;46.84
30935;BME280;51033;42.648;23.292;2022-09-09T08:12:04;94092.34;;;22.25;45.71
30935;BME280;51033;42.648;23.292;2022-09-09T08:14:31;94061.69;;;22.10;46.12
30935;BME280;51033;42.648;23.292;2022-09-09T08:16:57;94055.53;;;22.13;45.63
30935;BME280;51033;42.648;23.292;2022-09-09T08:19:23;94043.84;;;21.99;45.71
30935;BME280;51033;42.648;23.292;2022-09-09T08:21:48;94081.16;;;22.26;46.04
30935;BME280;51033;42.648;23.292;2022-09-09T08:24:14;94056.31;;;22.17;45.08
30935;BME280;51033;42.648;23.292;2022-09-09T08:26:47;94092.81;;;22.45;45.21
30935;BME280;51033;42.648;23.292;2022-09-09T08:29:14;94078.13;;;22.46;44.89
30935;BME280;51033;42.648;23.292;2022-09-09T08:31:52;94086.66;;;22.55;44.82
30935;BME280;51033;42.648;23.292;2022-09-09T08:34:20;94078.94;;;22.57;44.76
30935;BME280;51033;42.648;23.292;2022-09-09T08:36:46;94021.53;;;22.26;44.77
30935;BME280;51033;42.648;23.292;2022-09-09T08:39:15;94082.44;;;22.61;45.29
30935;BME280;51033;42.648;23.292;2022-09-09T08:50:00;94075.97;;;22.90;43.52
30935;BME280;51033;42.648;23.292;2022-09-09T08:52:41;94086.81;;;22.94;43.49
30935;BME280;51033;42.648;23.292;2022-09-09T08:58:21;94066.66;;;22.98;43.38
30935;BME280;51033;42.648;23.292;2022-09-09T09:11:47;94069.78;;;23.00;42.47
30935;BME280;51033;42.648;23.292;2022-09-09T09:14:22;94076.00;;;23.15;43.46
30935;BME280;51033;42.648;23.292;2022-09-09T09:17:03;94079.88;;;23.25;43.21
30935;BME280;51033;42.648;23.292;2022-09-09T09:19:30;94051.19;;;23.17;42.44
30935;BME280;51033;42.648;23.292;2022-09-09T09:27:40;94055.03;;;23.37;41.94
30935;BME280;51033;42.648;23.292;2022-09-09T09:30:18;94071.34;;;23.44;43.02
30935;BME280;51033;42.648;23.292;2022-09-09T09:36:07;94072.91;;;23.45;42.56
30935;BME280;51033;42.648;23.292;2022-09-09T09:38:34;94070.19;;;23.52;41.69
30935;BME280;51033;42.648;23.292;2022-09-09T09:41:00;94070.22;;;23.55;41.60
30935;BME280;51033;42.648;23.292;2022-09-09T09:43:53;94053.53;;;23.57;42.53
30935;BME280;51033;42.648;23.292;2022-09-09T09:46:21;94055.06;;;23.65;41.93
30935;BME280;51033;42.648;23.292;2022-09-09T09:49:05;94023.66;;;23.57;42.41
30935;BME280;51033;42.648;23.292;2022-09-09T09:51:34;94054.28;;;23.79;41.09
30935;BME280;51033;42.648;23.292;2022-09-09T09:54:09;94051.94;;;23.81;41.00
30935;BME280;51033;42.648;23.292;2022-09-09T09:56:40;94057.38;;;23.84;40.54
30935;BME280;51033;42.648;23.292;2022-09-09T09:59:22;94047.28;;;23.88;41.28
30935;BME280;51033;42.648;23.292;2022-09-09T10:01:50;94048.81;;;23.89;40.48
30935;BME280;51033;42.648;23.292;2022-09-09T10:04:19;94046.47;;;23.91;41.06
30935;BME280;51033;42.648;23.292;2022-09-09T10:06:46;94008.91;;;23.69;40.88
30935;BME280;51033;42.648;23.292;2022-09-09T10:09:37;94057.69;;;24.00;40.02
30935;BME280;51033;42.648;23.292;2022-09-09T10:15:07;94060.41;;;24.00;40.59
30935;BME280;51033;42.648;23.292;2022-09-09T10:20:52;94067.81;;;24.04;40.92
30935;BME280;51033;42.648;23.292;2022-09-09T10:26:03;94031.78;;;23.85;41.99
30935;BME280;51033;42.648;23.292;2022-09-09T10:29:05;94063.53;;;24.10;43.25
30935;BME280;51033;42.648;23.292;2022-09-09T10:31:49;94061.19;;;24.12;40.80
30935;BME280;51033;42.648;23.292;2022-09-09T10:51:24;94065.84;;;24.00;41.56
30935;BME280;51033;42.648;23.292;2022-09-09T10:56:51;94054.22;;;24.04;40.73
30935;BME280;51033;42.648;23.292;2022-09-09T10:59:27;94031.34;;;23.94;40.58
30935;BME280;51033;42.648;23.292;2022-09-09T11:02:27;94067.00;;;24.17;40.43
30935;BME280;51033;42.648;23.292;2022-09-09T11:05:20;94064.28;;;24.17;40.44
30935;BME280;51033;42.648;23.292;2022-09-09T11:10:24;94039.09;;;23.92;40.88
30935;BME280;51033;42.648;23.292;2022-09-09T11:12:57;94021.66;;;23.82;41.04
30935;BME280;51033;42.648;23.292;2022-09-09T11:15:33;94044.50;;;24.10;41.52
30935;BME280;51033;42.648;23.292;2022-09-09T11:18:03;94058.84;;;24.24;41.64
30935;BME280;51033;42.648;23.292;2022-09-09T11:20:29;94054.16;;;24.25;41.38
30935;BME280;51033;42.648;23.292;2022-09-09T11:22:59;94051.81;;;24.30;42.16
30935;BME280;51033;42.648;23.292;2022-09-09T11:25:33;94042.88;;;24.33;42.03
30935;BME280;51033;42.648;23.292;2022-09-09T11:33:49;94020.72;;;24.38;41.68
30935;BME280;51033;42.648;23.292;2022-09-09T11:44:40;93995.56;;;24.24;42.63
30935;BME280;51033;42.648;23.292;2022-09-09T11:47:21;93991.59;;;24.39;42.17
30935;BME280;51033;42.648;23.292;2022-09-09T11:49:48;93883.56;;;23.84;41.79
30935;BME280;51033;42.648;23.292;2022-09-09T11:54:48;93967.91;;;24.36;42.01
30935;BME280;51033;42.648;23.292;2022-09-09T11:57:35;93985.72;;;24.48;42.52
30935;BME280;51033;42.648;23.292;2022-09-09T12:00:02;93995.78;;;24.54;44.16
30935;BME280;51033;42.648;23.292;2022-09-09T12:02:28;93984.91;;;24.58;42.78
30935;BME280;51033;42.648;23.292;2022-09-09T12:05:11;93984.88;;;24.61;41.86
30935;BME280;51033;42.648;23.292;2022-09-09T12:07:42;93957.72;;;24.54;43.10
30935;BME280;51033;42.648;23.292;2022-09-09T12:10:27;93969.66;;;24.71;41.32
30935;BME280;51033;42.648;23.292;2022-09-09T12:12:54;93966.22;;;24.63;41.98
30935;BME280;51033;42.648;23.292;2022-09-09T12:15:23;93968.47;;;24.75;42.11
30935;BME280;51033;42.648;23.292;2022-09-09T12:17:51;93971.94;;;24.79;41.44
30935;BME280;51033;42.648;23.292;2022-09-09T12:28:22;93961.84;;;24.80;44.17
30935;BME280;51033;42.648;23.292;2022-09-09T12:31:06;93933.91;;;24.69;41.78
30935;BME280;51033;42.648;23.292;2022-09-09T12:33:36;93889.03;;;24.47;41.16
30935;BME280;51033;42.648;23.292;2022-09-09T12:36:03;93933.44;;;24.84;41.50
30935;BME280;51033;42.648;23.292;2022-09-09T12:38:40;93946.94;;;24.99;41.90
30935;BME280;51033;42.648;23.292;2022-09-09T12:41:18;93948.84;;;25.02;42.08
30935;BME280;51033;42.648;23.292;2022-09-09T14:13:42;93865.38;;;25.33;42.50
30935;BME280;51033;42.648;23.292;2022-09-09T14:16:08;93836.00;;;25.13;43.60
30935;BME280;51033;42.648;23.292;2022-09-09T14:18:34;93877.66;;;25.48;44.45
30935;BME280;51033;42.648;23.292;2022-09-09T14:21:00;93856.81;;;25.34;42.14
30935;BME280;51033;42.648;23.292;2022-09-09T14:23:28;93857.91;;;25.40;43.04
30935;BME280;51033;42.648;23.292;2022-09-09T14:25:54;93827.72;;;25.24;42.86
30935;BME280;51033;42.648;23.292;2022-09-09T14:28:19;93827.28;;;25.33;42.81
30935;BME280;51033;42.648;23.292;2022-09-09T14:30:45;93873.19;;;25.64;41.91
30935;BME280;51033;42.648;23.292;2022-09-09T14:33:14;93859.63;;;25.61;41.29
30935;BME280;51033;42.648;23.292;2022-09-09T14:35:41;93841.03;;;25.52;40.62
30935;BME280;51033;42.648;23.292;2022-09-09T14:38:07;93857.63;;;25.65;41.30
30935;BME280;51033;42.648;23.292;2022-09-09T14:40:35;93832.84;;;25.56;40.52
30935;BME280;51033;42.648;23.292;2022-09-09T14:43:01;93843.25;;;25.64;40.09
30935;BME280;51033;42.648;23.292;2022-09-09T14:45:27;93868.88;;;25.67;41.16
30935;BME280;51033;42.648;23.292;2022-09-09T14:47:53;93861.56;;;25.60;42.54
30935;BME280;51033;42.648;23.292;2022-09-09T14:50:20;93861.94;;;25.62;41.61
30935;BME280;51033;42.648;23.292;2022-09-09T14:52:46;93849.50;;;25.61;42.60
30935;BME280;51033;42.648;23.292;2022-09-09T14:55:12;93838.75;;;25.51;43.66
30935;BME280;51033;42.648;23.292;2022-09-09T14:57:38;93837.53;;;25.52;43.71
30935;BME280;51033;42.648;23.292;2022-09-09T15:00:04;93834.53;;;25.46;43.86
30935;BME280;51033;42.648;23.292;2022-09-09T15:02:30;93826.44;;;25.39;44.27
30935;BME280;51033;42.648;23.292;2022-09-09T15:04:56;93872.50;;;25.57;44.30
30935;BME280;51033;42.648;23.292;2022-09-09T15:07:25;93847.16;;;25.26;44.53
30935;BME280;51033;42.648;23.292;2022-09-09T15:09:52;93846.84;;;25.20;45.60
30935;BME280;51033;42.648;23.292;2022-09-09T15:12:18;93891.03;;;25.35;45.97
30935;BME280;51033;42.648;23.292;2022-09-09T15:14:47;93889.47;;;25.34;46.37
30935;BME280;51033;42.648;23.292;2022-09-09T15:17:13;93889.47;;;25.34;46.54
30935;BME280;51033;42.648;23.292;2022-09-09T15:19:38;93881.72;;;25.29;46.63
30935;BME280;51033;42.648;23.292;2022-09-09T15:22:05;93884.59;;;25.15;45.67
30935;BME280;51033;42.648;23.292;2022-09-09T15:24:34;93884.28;;;25.06;45.86
30935;BME280;51033;42.648;23.292;2022-09-09T15:27:01;93880.41;;;25.07;46.27
30935;BME280;51033;42.648;23.292;2022-09-09T15:29:26;93862.63;;;24.95;45.61
30935;BME280;51033;42.648;23.292;2022-09-09T15:31:54;93863.75;;;25.01;46.05
30935;BME280;51033;42.648;23.292;2022-09-09T15:34:20;93871.88;;;25.05;45.79
30935;BME280;51033;42.648;23.292;2022-09-09T15:36:45;93836.56;;;24.53;46.62
30935;BME280;51033;42.648;23.292;2022-09-09T15:39:13;93864.31;;;24.78;46.18
30935;BME280;51033;42.648;23.292;2022-09-09T15:41:43;93811.75;;;24.48;45.79
30935;BME280;51033;42.648;23.292;2022-09-09T15:44:10;93866.56;;;24.91;46.88
30935;BME280;51033;42.648;23.292;2022-09-09T15:46:50;93832.59;;;24.61;46.19
30935;BME280;51033;42.648;23.292;2022-09-09T15:49:21;93871.25;;;24.87;45.25
30935;BME280;51033;42.648;23.292;2022-09-09T15:52:00;93856.59;;;24.77;45.55
30935;BME280;51033;42.648;23.292;2022-09-09T15:54:31;93861.94;;;24.88;45.38
30935;BME280;51033;42.648;23.292;2022-09-09T15:56:59;93859.69;;;24.75;45.52
30935;BME280;51033;42.648;23.292;2022-09-09T15:59:27;93872.19;;;24.66;45.03
30935;BME280;51033;42.648;23.292;2022-09-09T16:01:53;93826.63;;;24.32;44.99
30935;BME280;51033;42.648;23.292;2022-09-09T16:04:21;93852.44;;;24.55;44.90
30935;BME280;51033;42.648;23.292;2022-09-09T16:06:58;93837.03;;;24.41;45.89
30935;BME280;51033;42.648;23.292;2022-09-09T16:09:24;93856.81;;;24.45;45.17
30935;BME280;51033;42.648;23.292;2022-09-09T16:11:50;93860.75;;;24.37;44.91
30935;BME280;51033;42.648;23.292;2022-09-09T16:14:16;93839.53;;;24.11;44.89
30935;BME280;51033;42.648;23.292;2022-09-09T16:16:42;93848.91;;;24.02;45.39
30935;BME280;51033;42.648;23.292;2022-09-09T16:19:09;93840.81;;;23.92;44.88
30935;BME280;51033;42.648;23.292;2022-09-09T16:21:47;93838.88;;;23.92;44.96
30935;BME280;51033;42.648;23.292;2022-09-09T16:24:15;93843.50;;;23.95;45.30
30935;BME280;51033;42.648;23.292;2022-09-09T16:26:43;93858.97;;;24.13;44.87
30935;BME280;51033;42.648;23.292;2022-09-09T16:29:16;93792.50;;;23.62;45.06
30935;BME280;51033;42.648;23.292;2022-09-09T16:31:42;93857.09;;;23.99;45.26
30935;BME280;51033;42.648;23.292;2022-09-09T16:34:09;93858.66;;;23.96;45.21
30935;BME280;51033;42.648;23.292;2022-09-09T16:36:36;93821.16;;;23.74;45.17
30935;BME280;51033;42.648;23.292;2022-09-09T16:39:05;93849.03;;;23.81;45.00
30935;BME280;51033;42.648;23.292;2022-09-09T16:41:31;93858.72;;;23.82;44.98
30935;BME280;51033;42.648;23.292;2022-09-09T16:44:00;93862.59;;;23.88;45.21
30935;BME280;51033;42.648;23.292;2022-09-09T16:46:29;93866.47;;;23.87;45.21
30935;BME280;51033;42.648;23.292;2022-09-09T16:48:56;93856.81;;;23.79;45.29
30935;BME280;51033;42.648;23.292;2022-09-09T16:51:32;93854.91;;;23.69;45.51
30935;BME280;51033;42.648;23.292;2022-09-09T16:54:00;93868.09;;;23.74;45.56
30935;BME280;51033;42.648;23.292;2022-09-09T16:56:29;93865.03;;;23.65;45.92
30935;BME280;51033;42.648;23.292;2022-09-09T16:59:00;93861.91;;;23.63;46.07